Pagina principale
METAR-TAF:

METAR-TAF

Aeroporti :

San Gallo, Svizzera

latitudine: 47-29-06N, longitudine: 009-33-43E, altezza: 398 m

Osservazione

Il bollettino è stato emesso 37 minuti fa, alle 15:50 UTC
Vento 4 kt da nord-est, variando fra nord e est
Temperature 19°C
Umidità 43%
Pressione 1017 hPa
Visibilità 10 km o più
Poco nuvoloso ad un'altezza di 6000 ft

METAR: LSZR 131550Z 05004KT 350V100 9999 FEW060 19/06 Q1017 RMK L

Ora: 18:27 (16:27 UTC)

Previsione

Il bollettino è stato emesso 2 ore e 2 minuti fa, alle 14:25 UTC
Previsione valida dal 13 alle 15 UTC al 13 alle 24 UTC
Vento 2 kt da direzioni variabili
Visibilità 10 km o più
Poco nuvoloso ad un'altezza di 4000 ft
Evoluzione graduale
dal 13 alle 15 UTC al 13 alle 16 UTC
Visibilità 10 km o più
nessuna nube inferiore a 1500 m e nessun cumulonembo

TAF: LSZR 131425Z 1315/1324 VRB02KT 9999 FEW040 BECMG 1315/1316 CAVOK

Osservazioni e previsioni meteorologiche di più di 4000 aeroporti (messaggi METAR e TAF).

Le stazioni disponibili sono rappresentate dai dischi gialli e rossi sulla carta.

Puntare il mouse per vedere il nome della stazione.

Clicca sopra per visualizzare le osservazioni e previsioni meteorologiche.

Per cambiare la mappa : fare clic sui pulsanti verdi con una croce nera per ingrandire, il pulsante verde con un trattino per diminuire, o sulla freccia verde per le mappe adiacenti.


METAR-TAF: